createdAt,value
2022-09-29T00:00:53.264Z,42.06
2022-09-29T00:01:53.449Z,41.41
2022-09-29T00:02:53.318Z,47.37
2022-09-29T00:03:53.230Z,43.83
2022-09-29T00:04:53.247Z,41.57
2022-09-29T00:05:53.212Z,49.31
2022-09-29T00:06:53.239Z,48.50
2022-09-29T00:07:53.206Z,50.76
2022-09-29T00:08:53.199Z,46.73
2022-09-29T00:09:53.174Z,50.11
2022-09-29T00:10:53.186Z,45.28
2022-09-29T00:11:53.151Z,41.09
2022-09-29T00:12:53.174Z,40.77
2022-09-29T00:13:54.760Z,44.96
2022-09-29T00:14:53.130Z,40.44
2022-09-29T00:15:53.153Z,42.86
2022-09-29T00:16:53.109Z,42.86
2022-09-29T00:18:12.779Z,43.18
2022-09-29T00:18:53.111Z,43.67
2022-09-29T00:19:53.082Z,40.61
2022-09-29T00:20:53.064Z,47.21
2022-09-29T00:21:53.065Z,41.57
2022-09-29T00:22:53.082Z,41.89
2022-09-29T00:23:53.053Z,41.73
2022-09-29T00:24:53.092Z,44.79
2022-09-29T00:25:53.051Z,49.31
2022-09-29T00:26:53.006Z,45.76
2022-09-29T00:27:52.998Z,55.43
2022-09-29T00:28:52.983Z,49.47
2022-09-29T00:29:52.968Z,42.38
2022-09-29T00:30:52.987Z,44.79
2022-09-29T00:31:53.017Z,43.34
2022-09-29T00:32:52.988Z,41.89
2022-09-29T00:33:52.930Z,39.80
2022-09-29T00:34:52.924Z,43.51
2022-09-29T00:35:52.913Z,47.53
2022-09-29T00:36:52.906Z,54.14
2022-09-29T00:37:52.891Z,45.76
2022-09-29T00:38:52.946Z,39.80
2022-09-29T00:39:52.872Z,53.50
2022-09-29T00:40:52.914Z,41.41
2022-09-29T00:41:52.874Z,52.21
2022-09-29T00:42:52.884Z,42.22
2022-09-29T00:43:52.890Z,41.89
2022-09-29T00:44:52.829Z,40.12
2022-09-29T00:45:52.828Z,40.61
2022-09-29T00:46:52.844Z,41.57
2022-09-29T00:47:52.800Z,47.86
2022-09-29T00:48:52.796Z,60.75
2022-09-29T00:49:52.769Z,44.31
2022-09-29T00:50:52.789Z,43.83
2022-09-29T00:51:52.756Z,41.73
2022-09-29T00:52:52.747Z,41.57
2022-09-29T00:53:52.756Z,44.79
2022-09-29T00:54:52.731Z,43.34
2022-09-29T00:55:52.716Z,45.28
2022-09-29T00:56:52.725Z,44.31
2022-09-29T00:57:52.687Z,52.69
2022-09-29T00:58:52.698Z,42.22
2022-09-29T00:59:52.688Z,43.18
2022-09-29T01:00:52.790Z,42.22
2022-09-29T01:01:52.745Z,43.34
2022-09-29T01:02:52.643Z,42.38
2022-09-29T01:03:52.644Z,40.44
2022-09-29T01:04:52.632Z,54.62
2022-09-29T01:05:52.657Z,49.95
2022-09-29T01:06:52.749Z,41.25
2022-09-29T01:07:52.599Z,42.70
2022-09-29T01:08:52.623Z,48.18
2022-09-29T01:09:52.631Z,44.31
2022-09-29T01:10:52.593Z,42.38
2022-09-29T01:11:52.556Z,41.09
2022-09-29T01:12:52.540Z,40.61
2022-09-29T01:13:52.544Z,44.79
2022-09-29T01:14:52.561Z,43.02
2022-09-29T01:15:52.556Z,47.37
2022-09-29T01:16:52.545Z,59.62
2022-09-29T01:17:52.486Z,48.98
2022-09-29T01:18:52.484Z,41.57
2022-09-29T01:19:52.487Z,40.61
2022-09-29T01:20:52.461Z,40.44
2022-09-29T01:21:52.483Z,49.15
2022-09-29T01:22:52.448Z,45.28
2022-09-29T01:23:52.441Z,45.60
2022-09-29T01:24:52.431Z,42.06
2022-09-29T01:25:52.426Z,42.22
2022-09-29T01:26:52.397Z,41.89
2022-09-29T01:27:52.378Z,40.61
2022-09-29T01:28:52.390Z,40.77
2022-09-29T01:29:52.359Z,40.77
2022-09-29T01:30:52.381Z,42.38
2022-09-29T01:31:52.440Z,44.31
2022-09-29T01:32:52.372Z,50.27
2022-09-29T01:33:52.326Z,59.62
2022-09-29T01:34:52.349Z,44.63
2022-09-29T01:35:52.332Z,43.18
2022-09-29T01:36:52.348Z,39.96
2022-09-29T01:37:52.291Z,42.54
2022-09-29T01:38:52.301Z,41.25
2022-09-29T01:39:52.289Z,42.70
2022-09-29T01:40:52.292Z,47.37
2022-09-29T01:41:52.239Z,41.73
2022-09-29T01:42:52.232Z,41.41
2022-09-29T01:43:52.248Z,46.25
2022-09-29T01:44:52.242Z,43.83
2022-09-29T01:45:52.277Z,47.53
2022-09-29T01:46:52.225Z,48.50
2022-09-29T01:47:52.191Z,43.99
2022-09-29T01:48:52.189Z,40.93
2022-09-29T01:49:52.193Z,51.72
2022-09-29T01:50:52.196Z,42.70
2022-09-29T01:51:52.185Z,45.12
2022-09-29T01:52:52.164Z,40.77
2022-09-29T01:53:52.131Z,41.25
2022-09-29T01:54:52.128Z,45.12
2022-09-29T01:55:52.130Z,50.43
2022-09-29T01:56:52.093Z,40.77
2022-09-29T01:57:52.078Z,58.81
2022-09-29T01:58:52.146Z,45.28
2022-09-29T01:59:52.057Z,53.66
2022-09-29T02:00:52.115Z,54.95
2022-09-29T02:01:52.129Z,43.02
2022-09-29T02:02:52.053Z,46.25
2022-09-29T02:03:52.025Z,42.86
2022-09-29T02:04:52.051Z,44.31
2022-09-29T02:05:51.993Z,42.38
2022-09-29T02:06:51.987Z,47.70
2022-09-29T02:07:52.017Z,51.24
2022-09-29T02:08:52.005Z,57.85
2022-09-29T02:09:51.965Z,61.55
2022-09-29T02:10:51.961Z,52.69
2022-09-29T02:11:51.930Z,45.60
2022-09-29T02:12:51.955Z,53.17
2022-09-29T02:13:51.912Z,47.86
2022-09-29T02:14:51.907Z,43.99
2022-09-29T02:15:51.959Z,45.76
2022-09-29T02:16:51.917Z,40.77
2022-09-29T02:17:51.920Z,42.06
2022-09-29T02:18:54.123Z,45.12
2022-09-29T02:19:51.868Z,48.98
2022-09-29T02:20:51.872Z,59.78
2022-09-29T02:21:51.829Z,43.34
2022-09-29T02:22:51.948Z,42.22
2022-09-29T02:23:51.808Z,45.44
2022-09-29T02:24:51.798Z,48.82
2022-09-29T02:25:51.785Z,61.39
2022-09-29T02:26:51.782Z,45.60
2022-09-29T02:27:51.774Z,47.05
2022-09-29T02:28:51.788Z,57.85
2022-09-29T02:29:51.778Z,52.21
2022-09-29T02:30:51.750Z,41.73
2022-09-29T02:31:51.799Z,41.41
2022-09-29T02:32:53.322Z,49.31
2022-09-29T02:33:51.727Z,58.65
2022-09-29T02:34:51.720Z,45.44
2022-09-29T02:35:51.691Z,47.70
2022-09-29T02:36:51.682Z,45.28
2022-09-29T02:37:51.665Z,62.20
2022-09-29T02:38:51.695Z,47.37
2022-09-29T02:39:51.648Z,66.39
2022-09-29T02:40:51.679Z,62.84
2022-09-29T02:41:51.626Z,48.18
2022-09-29T02:42:51.626Z,42.22
2022-09-29T02:43:51.641Z,43.83
2022-09-29T02:44:51.625Z,41.41
2022-09-29T02:45:51.618Z,49.63
2022-09-29T02:46:51.597Z,41.57
2022-09-29T02:47:51.569Z,41.89
2022-09-29T02:48:51.572Z,48.34
2022-09-29T02:49:51.577Z,48.50
2022-09-29T02:50:51.546Z,51.40
2022-09-29T02:51:51.519Z,43.18
2022-09-29T02:52:51.534Z,47.53
2022-09-29T02:53:51.523Z,54.46
2022-09-29T02:54:51.526Z,65.10
2022-09-29T02:55:51.487Z,49.47
2022-09-29T02:56:51.484Z,46.25
2022-09-29T02:57:51.471Z,49.15
2022-09-29T02:58:51.453Z,50.27
2022-09-29T02:59:51.469Z,43.83
2022-09-29T03:00:51.540Z,53.98
2022-09-29T03:01:51.425Z,42.38
2022-09-29T03:02:51.411Z,42.54
2022-09-29T03:03:51.466Z,46.89
2022-09-29T03:04:51.403Z,49.31
2022-09-29T03:05:51.420Z,51.88
2022-09-29T03:06:51.373Z,56.56
2022-09-29T03:07:51.362Z,48.02
2022-09-29T03:08:51.347Z,54.79
2022-09-29T03:09:51.379Z,63.65
2022-09-29T03:10:51.370Z,46.73
2022-09-29T03:11:51.469Z,46.08
2022-09-29T03:12:51.316Z,47.70
2022-09-29T03:13:51.317Z,59.30
2022-09-29T03:14:51.301Z,52.85
2022-09-29T03:15:51.358Z,46.41
2022-09-29T03:16:51.267Z,46.89
2022-09-29T03:17:51.271Z,56.24
2022-09-29T03:18:51.251Z,52.37
2022-09-29T03:19:51.242Z,47.05
2022-09-29T03:20:51.249Z,58.33
2022-09-29T03:21:51.241Z,47.21
2022-09-29T03:22:51.202Z,48.34
2022-09-29T03:23:55.375Z,61.71
2022-09-29T03:24:51.199Z,55.59
2022-09-29T03:25:51.199Z,49.95
2022-09-29T03:26:51.196Z,58.17
2022-09-29T03:27:51.166Z,55.91
2022-09-29T03:28:51.144Z,47.53
2022-09-29T03:29:51.160Z,50.76
2022-09-29T03:30:51.124Z,57.04
2022-09-29T03:31:51.236Z,51.40
2022-09-29T03:32:51.100Z,56.40
2022-09-29T03:33:51.101Z,53.01
2022-09-29T03:34:51.110Z,48.98
2022-09-29T03:35:51.080Z,44.31
2022-09-29T03:36:51.073Z,61.23
2022-09-29T03:37:51.055Z,51.40
2022-09-29T03:38:51.055Z,51.08
2022-09-29T03:39:51.063Z,65.58
2022-09-29T03:40:51.050Z,71.54
2022-09-29T03:41:51.024Z,61.23
2022-09-29T03:42:51.015Z,57.04
2022-09-29T03:43:51.003Z,53.66
2022-09-29T03:44:51.006Z,52.37
2022-09-29T03:45:51.038Z,59.30
2022-09-29T03:46:50.963Z,56.24
2022-09-29T03:47:50.962Z,60.91
2022-09-29T03:48:50.960Z,46.73
2022-09-29T03:49:50.934Z,48.50
2022-09-29T03:50:50.934Z,48.98
2022-09-29T03:51:50.912Z,69.77
2022-09-29T03:52:50.892Z,60.75
2022-09-29T03:53:50.905Z,62.52
2022-09-29T03:54:50.883Z,58.49
2022-09-29T03:55:50.815Z,70.25
2022-09-29T03:56:50.857Z,60.26
2022-09-29T03:57:50.872Z,69.45
2022-09-29T03:58:50.860Z,63.65
2022-09-29T03:59:50.842Z,53.17
2022-09-29T04:00:50.846Z,45.28
2022-09-29T04:01:50.880Z,53.01
2022-09-29T04:02:50.801Z,59.46
2022-09-29T04:03:50.892Z,59.94
2022-09-29T04:04:50.796Z,54.14
2022-09-29T04:05:51.168Z,48.50
2022-09-29T04:06:50.830Z,51.72
2022-09-29T04:07:50.761Z,55.11
2022-09-29T04:08:50.752Z,67.19
2022-09-29T04:09:50.729Z,56.56
2022-09-29T04:10:50.704Z,50.92
2022-09-29T04:11:50.649Z,64.94
2022-09-29T04:12:50.697Z,60.26
2022-09-29T04:13:50.704Z,59.94
2022-09-29T04:14:50.761Z,53.50
2022-09-29T04:15:50.676Z,53.66
2022-09-29T04:16:50.657Z,59.46
2022-09-29T04:17:50.646Z,61.87
2022-09-29T04:18:50.604Z,59.78
2022-09-29T04:19:50.624Z,64.61
2022-09-29T04:20:50.611Z,53.33
2022-09-29T04:21:50.559Z,65.26
2022-09-29T04:22:50.591Z,56.40
2022-09-29T04:23:50.600Z,64.61
2022-09-29T04:24:50.582Z,51.56
2022-09-29T04:25:50.562Z,56.56
2022-09-29T04:26:50.593Z,63.49
2022-09-29T04:27:50.540Z,67.84
2022-09-29T04:28:50.538Z,55.75
2022-09-29T04:29:50.542Z,62.84
2022-09-29T04:30:50.522Z,70.74
2022-09-29T04:31:50.598Z,65.42
2022-09-29T04:32:50.531Z,65.10
2022-09-29T04:33:50.441Z,70.25
2022-09-29T04:34:50.470Z,63.33
2022-09-29T04:35:50.481Z,71.06
2022-09-29T04:36:50.464Z,67.68
2022-09-29T04:37:50.443Z,60.10
2022-09-29T04:38:50.420Z,53.82
2022-09-29T04:39:50.386Z,65.74
2022-09-29T04:40:50.437Z,48.50
2022-09-29T04:41:50.367Z,71.22
2022-09-29T04:42:50.393Z,59.30
2022-09-29T04:43:50.344Z,69.61
2022-09-29T04:44:50.366Z,61.23
2022-09-29T04:45:50.390Z,51.72
2022-09-29T04:46:50.400Z,72.03
2022-09-29T04:47:50.335Z,68.16
2022-09-29T04:48:50.292Z,71.54
2022-09-29T04:49:50.318Z,74.12
2022-09-29T04:50:50.295Z,66.06
2022-09-29T04:51:50.350Z,62.04
2022-09-29T04:52:50.235Z,65.26
2022-09-29T04:53:50.304Z,70.09
2022-09-29T04:54:50.222Z,69.29
2022-09-29T04:55:50.252Z,56.88
2022-09-29T04:56:50.309Z,63.16
2022-09-29T04:57:50.271Z,60.26
2022-09-29T04:58:50.239Z,60.75
2022-09-29T04:59:50.228Z,53.98
2022-09-29T05:00:52.904Z,67.03
2022-09-29T05:01:50.205Z,61.55
2022-09-29T05:02:50.245Z,57.69
2022-09-29T05:03:50.179Z,65.58
2022-09-29T05:04:50.194Z,61.23
2022-09-29T05:05:50.165Z,65.90
2022-09-29T05:06:50.144Z,69.61
2022-09-29T05:07:50.088Z,61.87
2022-09-29T05:08:50.075Z,61.71
2022-09-29T05:09:50.130Z,71.38
2022-09-29T05:10:50.124Z,59.62
2022-09-29T05:11:50.050Z,66.23
2022-09-29T05:12:50.065Z,72.67
2022-09-29T05:13:50.013Z,59.94
2022-09-29T05:14:50.026Z,63.16
2022-09-29T05:15:50.000Z,56.40
2022-09-29T05:16:50.012Z,68.16
2022-09-29T05:17:49.968Z,64.61
2022-09-29T05:18:49.959Z,63.33
2022-09-29T05:19:49.969Z,62.84
2022-09-29T05:21:10.219Z,60.42
2022-09-29T05:21:49.944Z,59.94
2022-09-29T05:22:49.939Z,63.49
2022-09-29T05:23:49.918Z,65.58
2022-09-29T05:24:49.920Z,63.97
2022-09-29T05:25:49.891Z,58.33
2022-09-29T05:26:51.205Z,60.91
2022-09-29T05:27:49.886Z,67.03
2022-09-29T05:28:49.854Z,68.32
2022-09-29T05:29:49.851Z,58.01
2022-09-29T05:30:49.833Z,59.94
2022-09-29T05:31:49.886Z,66.71
2022-09-29T05:32:49.818Z,70.25
2022-09-29T05:33:49.820Z,74.60
2022-09-29T05:34:49.861Z,69.77
2022-09-29T05:35:49.786Z,58.65
2022-09-29T05:36:49.796Z,67.19
2022-09-29T05:37:49.802Z,69.45
2022-09-29T05:38:49.754Z,64.45
2022-09-29T05:39:49.741Z,68.16
2022-09-29T05:40:49.803Z,65.10
2022-09-29T05:41:49.730Z,63.65
2022-09-29T05:42:49.729Z,60.75
2022-09-29T05:43:49.710Z,62.52
2022-09-29T05:44:49.699Z,69.13
2022-09-29T05:45:49.776Z,66.87
2022-09-29T05:46:49.697Z,62.52
2022-09-29T05:47:49.716Z,62.20
2022-09-29T05:48:49.650Z,65.74
2022-09-29T05:49:49.655Z,67.19
2022-09-29T05:50:49.641Z,65.90
2022-09-29T05:51:49.638Z,69.13
2022-09-29T05:52:49.686Z,69.77
2022-09-29T05:53:49.632Z,68.48
2022-09-29T05:54:49.595Z,62.52
2022-09-29T05:55:49.584Z,70.42
2022-09-29T05:56:49.580Z,70.09
2022-09-29T05:57:49.589Z,69.13
2022-09-29T05:58:49.599Z,61.39
2022-09-29T05:59:49.549Z,67.19
2022-09-29T06:00:49.569Z,78.47
2022-09-29T06:01:49.597Z,70.74
2022-09-29T06:02:49.527Z,65.74
2022-09-29T06:03:51.222Z,68.48
2022-09-29T06:04:49.539Z,75.25
2022-09-29T06:05:49.490Z,67.03
2022-09-29T06:06:49.485Z,64.61
2022-09-29T06:07:49.476Z,67.68
2022-09-29T06:08:49.468Z,69.13
2022-09-29T06:09:49.469Z,71.22
2022-09-29T06:10:49.450Z,70.74
2022-09-29T06:11:49.423Z,68.96
2022-09-29T06:12:49.437Z,64.29
2022-09-29T06:13:49.411Z,67.84
2022-09-29T06:14:49.446Z,68.80
2022-09-29T06:15:49.392Z,71.54
2022-09-29T06:16:49.422Z,70.58
2022-09-29T06:17:49.363Z,65.42
2022-09-29T06:18:49.344Z,66.23
2022-09-29T06:19:49.339Z,68.80
2022-09-29T06:20:49.346Z,66.55
2022-09-29T06:21:49.353Z,67.51
2022-09-29T06:22:49.301Z,66.87
2022-09-29T06:23:49.350Z,76.54
2022-09-29T06:24:49.345Z,75.73
2022-09-29T06:25:50.934Z,68.64
2022-09-29T06:26:49.276Z,65.74
2022-09-29T06:27:50.951Z,69.77
2022-09-29T06:28:49.240Z,74.60
2022-09-29T06:29:49.236Z,76.54
2022-09-29T06:30:51.926Z,70.74
2022-09-29T06:31:52.010Z,65.58
2022-09-29T06:32:49.250Z,66.39
2022-09-29T06:33:49.433Z,64.45
2022-09-29T06:34:49.200Z,70.25
2022-09-29T06:35:49.225Z,64.45
2022-09-29T06:36:49.167Z,67.35
2022-09-29T06:37:49.166Z,65.10
2022-09-29T06:38:49.201Z,67.03
2022-09-29T06:39:49.145Z,67.03
2022-09-29T06:40:49.196Z,64.94
2022-09-29T06:41:49.149Z,74.28
2022-09-29T06:42:49.121Z,67.51
2022-09-29T06:43:49.091Z,63.00
2022-09-29T06:44:49.163Z,69.13
2022-09-29T06:45:49.110Z,70.74
2022-09-29T06:46:49.075Z,73.96
2022-09-29T06:47:53.882Z,68.32
2022-09-29T06:48:49.041Z,69.77
2022-09-29T06:49:49.073Z,70.74
2022-09-29T06:50:57.550Z,65.26
2022-09-29T06:51:49.054Z,69.13
2022-09-29T06:53:00.002Z,64.61
2022-09-29T06:53:49.029Z,70.58
2022-09-29T06:54:50.641Z,71.38
2022-09-29T06:55:48.984Z,72.83
2022-09-29T06:56:50.575Z,64.61
2022-09-29T06:57:50.590Z,68.32
2022-09-29T06:58:50.566Z,63.16
2022-09-29T06:59:48.958Z,65.58
2022-09-29T07:00:50.741Z,65.42
2022-09-29T07:01:51.404Z,63.33
2022-09-29T07:02:50.504Z,81.37
2022-09-29T07:03:48.893Z,63.81
2022-09-29T07:04:50.512Z,69.93
2022-09-29T07:06:01.971Z,55.27
2022-09-29T07:06:48.880Z,63.16
2022-09-29T07:07:51.853Z,68.16
2022-09-29T07:08:48.832Z,71.06
2022-09-29T07:09:48.857Z,68.32
2022-09-29T07:10:50.444Z,68.16
2022-09-29T07:11:48.860Z,70.09
2022-09-29T07:12:48.790Z,65.10
2022-09-29T07:13:53.499Z,67.84
2022-09-29T07:14:48.799Z,63.49
2022-09-29T07:15:50.376Z,70.58
2022-09-29T07:16:48.807Z,68.80
2022-09-29T07:17:48.760Z,65.58
2022-09-29T07:18:48.746Z,69.77
2022-09-29T07:19:48.715Z,72.51
2022-09-29T07:20:48.730Z,73.64
2022-09-29T07:21:48.728Z,71.38
2022-09-29T07:22:48.740Z,69.61
2022-09-29T07:23:48.684Z,70.74
2022-09-29T07:24:48.699Z,70.58
2022-09-29T07:25:52.314Z,69.13
2022-09-29T07:26:50.279Z,67.35
2022-09-29T07:27:48.700Z,68.96
2022-09-29T07:28:48.625Z,63.00
2022-09-29T07:30:00.293Z,64.61
2022-09-29T07:30:48.617Z,60.59
2022-09-29T07:31:51.931Z,62.68
2022-09-29T07:32:59.382Z,58.65
2022-09-29T07:33:48.657Z,59.62
2022-09-29T07:34:48.587Z,63.81
2022-09-29T07:35:48.605Z,59.94
2022-09-29T07:36:48.555Z,80.57
2022-09-29T07:37:48.571Z,63.49
2022-09-29T07:38:48.526Z,62.04
2022-09-29T07:39:48.515Z,61.71
2022-09-29T07:40:48.573Z,64.13
2022-09-29T07:42:13.001Z,63.49
2022-09-29T07:42:49.344Z,62.84
2022-09-29T07:43:48.484Z,64.13
2022-09-29T07:44:52.481Z,64.45
2022-09-29T07:45:48.489Z,61.87
2022-09-29T07:46:50.109Z,62.68
2022-09-29T07:47:48.459Z,66.55
2022-09-29T07:48:50.300Z,62.68
2022-09-29T07:49:48.427Z,64.13
2022-09-29T07:50:48.447Z,67.35
2022-09-29T07:51:49.938Z,64.61
2022-09-29T07:52:49.948Z,62.52
2022-09-29T07:53:48.370Z,59.94
2022-09-29T07:54:48.391Z,62.84
2022-09-29T07:55:48.342Z,60.59
2022-09-29T07:56:48.355Z,58.33
2022-09-29T07:57:48.335Z,75.57
2022-09-29T07:58:48.318Z,70.42
2022-09-29T07:59:53.059Z,61.07
2022-09-29T08:00:48.382Z,64.94
2022-09-29T08:01:48.302Z,63.65
2022-09-29T08:02:48.344Z,65.10
2022-09-29T08:03:48.268Z,62.20
2022-09-29T08:04:50.199Z,61.71
2022-09-29T08:05:48.263Z,61.07
2022-09-29T08:06:48.281Z,61.07
2022-09-29T08:07:48.248Z,61.07
2022-09-29T08:09:00.112Z,69.61
2022-09-29T08:09:48.213Z,66.87
2022-09-29T08:10:53.328Z,64.61
2022-09-29T08:11:49.923Z,62.52
2022-09-29T08:12:48.201Z,60.91
2022-09-29T08:13:48.202Z,62.84
2022-09-29T08:14:50.918Z,58.81
2022-09-29T08:15:51.610Z,62.20
2022-09-29T08:16:48.268Z,61.39
2022-09-29T08:17:48.378Z,60.91
2022-09-29T08:18:48.126Z,58.33
2022-09-29T08:19:48.105Z,64.13
2022-09-29T08:20:48.095Z,70.90
2022-09-29T08:21:48.850Z,65.10
2022-09-29T08:22:48.079Z,61.71
2022-09-29T08:23:48.109Z,56.72
2022-09-29T08:24:48.061Z,61.39
2022-09-29T08:25:59.437Z,71.87
2022-09-29T08:26:48.090Z,65.74
2022-09-29T08:27:55.183Z,60.75
2022-09-29T08:28:52.879Z,64.94
2022-09-29T08:29:48.015Z,69.77
2022-09-29T08:30:48.018Z,68.80
2022-09-29T08:31:48.078Z,60.75
2022-09-29T08:32:47.979Z,68.00
2022-09-29T08:33:49.585Z,66.87
2022-09-29T08:34:49.573Z,65.10
2022-09-29T08:35:47.974Z,63.81
2022-09-29T08:36:49.575Z,59.62
2022-09-29T08:37:47.938Z,70.90
2022-09-29T08:38:47.980Z,73.32
2022-09-29T08:39:47.900Z,64.13
2022-09-29T08:40:47.936Z,65.10
2022-09-29T08:41:47.918Z,63.97
2022-09-29T08:42:49.225Z,66.55
2022-09-29T08:43:47.931Z,72.35
2022-09-29T08:44:47.944Z,71.38
2022-09-29T08:45:59.485Z,64.29
2022-09-29T08:46:48.061Z,67.84
2022-09-29T08:47:48.323Z,72.99
2022-09-29T08:48:56.820Z,68.80
2022-09-29T08:49:47.819Z,67.35
2022-09-29T08:50:47.814Z,67.35
2022-09-29T08:51:47.808Z,68.96
2022-09-29T08:52:52.384Z,63.65
2022-09-29T08:54:00.218Z,68.96
2022-09-29T08:54:49.495Z,73.48
2022-09-29T08:55:47.739Z,61.39
2022-09-29T08:56:47.763Z,66.23
2022-09-29T08:57:49.339Z,68.32
2022-09-29T08:58:47.719Z,60.75
2022-09-29T08:59:47.691Z,61.23
2022-09-29T09:00:47.803Z,65.26
2022-09-29T09:01:47.678Z,67.51
2022-09-29T09:02:47.748Z,64.94
2022-09-29T09:03:47.665Z,76.54
2022-09-29T09:04:47.692Z,70.42
2022-09-29T09:05:49.396Z,69.13
2022-09-29T09:06:47.690Z,69.61
2022-09-29T09:07:47.629Z,71.06
2022-09-29T09:08:47.711Z,69.45
2022-09-29T09:09:47.595Z,69.93
2022-09-29T09:10:47.683Z,68.32
2022-09-29T09:11:47.652Z,81.05
2022-09-29T09:12:47.599Z,61.55
2022-09-29T09:13:47.550Z,70.42
2022-09-29T09:14:47.552Z,71.70
2022-09-29T09:15:47.558Z,76.54
2022-09-29T09:16:47.640Z,68.64
2022-09-29T09:17:47.690Z,60.10
2022-09-29T09:18:47.574Z,72.51
2022-09-29T09:19:47.495Z,69.77
2022-09-29T09:20:48.455Z,69.13
2022-09-29T09:21:47.536Z,67.35
2022-09-29T09:22:47.524Z,68.32
2022-09-29T09:23:47.469Z,67.68
2022-09-29T09:24:47.445Z,72.51
2022-09-29T09:25:47.451Z,72.99
2022-09-29T09:26:49.201Z,62.36
2022-09-29T09:27:47.430Z,67.03
2022-09-29T09:28:51.483Z,67.19
2022-09-29T09:29:47.422Z,66.71
2022-09-29T09:30:47.471Z,68.48
2022-09-29T09:31:47.386Z,59.30
2022-09-29T09:32:47.395Z,70.09
2022-09-29T09:33:58.911Z,71.54
2022-09-29T09:34:47.517Z,68.00
2022-09-29T09:35:57.232Z,66.23
2022-09-29T09:36:49.514Z,63.97
2022-09-29T09:37:47.308Z,67.03
2022-09-29T09:38:47.355Z,66.87
2022-09-29T09:39:47.296Z,61.55
2022-09-29T09:40:47.297Z,62.52
2022-09-29T09:41:48.892Z,65.26
2022-09-29T09:42:47.360Z,63.16
2022-09-29T09:43:47.283Z,60.26
2022-09-29T09:44:47.264Z,67.68
2022-09-29T09:45:47.264Z,63.00
2022-09-29T09:46:49.983Z,62.20
2022-09-29T09:47:47.223Z,67.84
2022-09-29T09:48:47.236Z,62.36
2022-09-29T09:49:47.185Z,65.90
2022-09-29T09:50:47.270Z,57.20
2022-09-29T09:51:49.772Z,67.19
2022-09-29T09:52:47.210Z,65.10
2022-09-29T09:53:47.136Z,55.75
2022-09-29T09:54:47.139Z,68.00
2022-09-29T09:55:47.111Z,70.25
2022-09-29T09:56:47.126Z,58.17
2022-09-29T09:57:48.712Z,63.16
2022-09-29T09:58:47.093Z,60.42
2022-09-29T09:59:47.101Z,71.22
2022-09-29T10:00:47.067Z,68.80
2022-09-29T10:01:47.200Z,60.26
2022-09-29T10:02:47.097Z,64.13
2022-09-29T10:03:47.057Z,66.87
2022-09-29T10:04:47.030Z,63.97
2022-09-29T10:05:47.056Z,58.49
2022-09-29T10:06:47.053Z,60.59
2022-09-29T10:07:47.012Z,64.29
2022-09-29T10:08:48.628Z,65.90
2022-09-29T10:09:47.047Z,64.13
2022-09-29T10:10:58.051Z,72.83
2022-09-29T10:11:46.981Z,66.55
2022-09-29T10:12:46.985Z,60.10
2022-09-29T10:13:46.944Z,61.39
2022-09-29T10:14:46.922Z,56.72
2022-09-29T10:15:46.902Z,66.71
2022-09-29T10:16:47.362Z,61.39
2022-09-29T10:17:46.937Z,67.19
2022-09-29T10:18:48.555Z,61.07
2022-09-29T10:19:48.491Z,58.17
2022-09-29T10:20:46.888Z,69.77
2022-09-29T10:21:46.943Z,67.19
2022-09-29T10:22:49.724Z,59.62
2022-09-29T10:23:46.847Z,66.71
2022-09-29T10:24:46.814Z,59.14
2022-09-29T10:25:46.808Z,60.26
2022-09-29T10:26:48.418Z,64.94
2022-09-29T10:27:46.786Z,58.97
2022-09-29T10:28:46.839Z,63.33
2022-09-29T10:29:48.402Z,69.93
2022-09-29T10:30:46.888Z,64.94
2022-09-29T10:31:48.546Z,60.26
2022-09-29T10:32:46.743Z,54.62
2022-09-29T10:33:46.762Z,66.55
2022-09-29T10:34:48.426Z,62.52
2022-09-29T10:35:46.739Z,74.12
2022-09-29T10:36:46.691Z,63.49
2022-09-29T10:37:48.318Z,60.75
2022-09-29T10:38:48.322Z,77.02
2022-09-29T10:39:46.652Z,66.06
2022-09-29T10:40:46.713Z,61.23
2022-09-29T10:41:46.662Z,61.87
2022-09-29T10:42:46.638Z,64.61
2022-09-29T10:43:46.642Z,68.96
2022-09-29T10:44:46.646Z,69.29
2022-09-29T10:45:47.132Z,60.26
2022-09-29T10:46:46.674Z,71.06
2022-09-29T10:47:46.668Z,57.36
2022-09-29T10:48:46.633Z,63.33
2022-09-29T10:49:46.580Z,68.16
2022-09-29T10:50:46.642Z,59.30
2022-09-29T10:51:46.545Z,65.26
2022-09-29T10:52:46.538Z,75.89
2022-09-29T10:53:46.512Z,61.23
2022-09-29T10:54:48.281Z,63.65
2022-09-29T10:55:48.106Z,60.91
2022-09-29T10:56:46.505Z,61.39
2022-09-29T10:57:46.502Z,59.46
2022-09-29T10:58:58.806Z,61.07
2022-09-29T10:59:46.501Z,56.88
2022-09-29T11:00:46.447Z,66.06
2022-09-29T11:01:46.447Z,60.59
2022-09-29T11:02:46.460Z,56.24
2022-09-29T11:03:46.397Z,61.39
2022-09-29T11:04:46.425Z,67.84
2022-09-29T11:05:46.420Z,55.75
2022-09-29T11:06:46.396Z,60.75
2022-09-29T11:07:47.982Z,64.61
2022-09-29T11:08:46.383Z,56.24
2022-09-29T11:09:47.977Z,62.52
2022-09-29T11:10:47.949Z,64.29
2022-09-29T11:11:46.328Z,63.97
2022-09-29T11:12:46.315Z,62.68
2022-09-29T11:13:46.317Z,61.55
2022-09-29T11:14:46.355Z,67.19
2022-09-29T11:15:46.274Z,62.84
2022-09-29T11:16:47.934Z,68.64
2022-09-29T11:17:47.915Z,66.87
2022-09-29T11:18:46.273Z,62.20
2022-09-29T11:19:46.237Z,68.80
2022-09-29T11:20:46.225Z,64.13
2022-09-29T11:21:46.268Z,65.74
2022-09-29T11:22:46.198Z,64.29
2022-09-29T11:23:46.191Z,60.42
2022-09-29T11:24:47.827Z,60.10
2022-09-29T11:25:46.201Z,63.33
2022-09-29T11:26:48.889Z,62.20
2022-09-29T11:27:46.169Z,67.19
2022-09-29T11:28:50.950Z,82.18
2022-09-29T11:29:46.182Z,77.83
2022-09-29T11:30:47.784Z,80.89
2022-09-29T11:31:46.140Z,70.42
2022-09-29T11:32:47.812Z,68.80
2022-09-29T11:33:46.125Z,69.13
2022-09-29T11:34:47.736Z,71.22
2022-09-29T11:35:46.099Z,68.16
2022-09-29T11:36:46.062Z,76.22
2022-09-29T11:37:46.058Z,77.99
2022-09-29T11:38:46.067Z,75.41
2022-09-29T11:39:46.104Z,67.35
2022-09-29T11:40:46.091Z,62.68
2022-09-29T11:41:46.044Z,58.97
2022-09-29T11:42:45.995Z,62.36
2022-09-29T11:43:46.020Z,70.25
2022-09-29T11:44:46.011Z,65.58
2022-09-29T11:45:46.048Z,60.26
2022-09-29T11:46:46.005Z,67.35
2022-09-29T11:47:45.964Z,63.33
2022-09-29T11:48:48.757Z,63.97
2022-09-29T11:49:45.933Z,70.42
2022-09-29T11:50:45.923Z,64.78
2022-09-29T11:51:45.941Z,69.77
2022-09-29T11:52:45.923Z,63.97
2022-09-29T11:53:45.899Z,66.06
2022-09-29T11:54:45.869Z,61.39
2022-09-29T11:55:45.864Z,62.84
2022-09-29T11:56:45.849Z,54.95
2022-09-29T11:57:45.886Z,69.45
2022-09-29T11:58:45.841Z,88.14
2022-09-29T11:59:45.831Z,68.96
2022-09-29T12:00:45.801Z,57.85
2022-09-29T12:01:45.827Z,61.07
2022-09-29T12:02:45.915Z,60.26
2022-09-29T12:03:45.787Z,60.75
2022-09-29T12:04:45.775Z,66.23
2022-09-29T12:05:45.787Z,58.33
2022-09-29T12:06:45.743Z,64.61
2022-09-29T12:07:45.794Z,65.90
2022-09-29T12:08:45.749Z,58.81
2022-09-29T12:09:45.743Z,64.61
2022-09-29T12:10:45.727Z,64.78
2022-09-29T12:11:59.912Z,68.96
2022-09-29T12:12:45.771Z,64.45
2022-09-29T12:13:45.702Z,63.33
2022-09-29T12:14:45.660Z,66.87
2022-09-29T12:15:45.663Z,53.98
2022-09-29T12:16:45.755Z,62.36
2022-09-29T12:17:45.649Z,59.46
2022-09-29T12:18:45.647Z,64.61
2022-09-29T12:19:45.619Z,67.19
2022-09-29T12:20:45.640Z,69.45
2022-09-29T12:21:45.596Z,57.85
2022-09-29T12:22:45.603Z,63.49
2022-09-29T12:23:45.583Z,57.69
2022-09-29T12:24:45.605Z,65.10
2022-09-29T12:25:45.560Z,66.55
2022-09-29T12:26:45.587Z,66.06
2022-09-29T12:27:45.537Z,71.87
2022-09-29T12:28:45.580Z,62.84
2022-09-29T12:29:45.541Z,61.07
2022-09-29T12:30:45.535Z,64.29
2022-09-29T12:31:45.538Z,65.74
2022-09-29T12:32:45.532Z,65.26
2022-09-29T12:33:45.514Z,62.36
2022-09-29T12:34:45.529Z,65.74
2022-09-29T12:35:45.493Z,72.51
2022-09-29T12:36:45.436Z,61.07
2022-09-29T12:37:45.434Z,55.27
2022-09-29T12:38:45.443Z,68.16
2022-09-29T12:39:45.432Z,57.85
2022-09-29T12:40:45.458Z,63.49
2022-09-29T12:41:45.409Z,59.94
2022-09-29T12:42:45.379Z,65.42
2022-09-29T12:43:45.379Z,63.16
2022-09-29T12:44:45.356Z,62.52
2022-09-29T12:45:45.444Z,63.16
2022-09-29T12:46:45.349Z,68.64
2022-09-29T12:47:45.388Z,74.77
2022-09-29T12:48:45.322Z,69.29
2022-09-29T12:49:45.332Z,65.42
2022-09-29T12:50:45.294Z,67.35
2022-09-29T12:51:45.299Z,61.23
2022-09-29T12:52:45.342Z,60.59